sensor_id;sensor_type;location;lat;lon;timestamp;pressure;altitude;pressure_sealevel;temperature;humidity
37170;BME280;23062;13.952;100.608;2023-03-22T00:00:26;1008.42;;;31.15;64.85
37170;BME280;23062;13.952;100.608;2023-03-22T00:04:52;1008.53;;;31.17;64.82
37170;BME280;23062;13.952;100.608;2023-03-22T00:09:18;1008.55;;;31.16;64.88
37170;BME280;23062;13.952;100.608;2023-03-22T00:13:49;1008.57;;;31.15;64.93
37170;BME280;23062;13.952;100.608;2023-03-22T00:18:22;1008.59;;;31.17;64.90
37170;BME280;23062;13.952;100.608;2023-03-22T00:22:50;1008.66;;;31.19;64.94
37170;BME280;23062;13.952;100.608;2023-03-22T00:27:16;1008.66;;;31.20;65.00
37170;BME280;23062;13.952;100.608;2023-03-22T00:31:42;1008.74;;;31.18;65.12
37170;BME280;23062;13.952;100.608;2023-03-22T00:36:09;1008.81;;;31.20;65.09
37170;BME280;23062;13.952;100.608;2023-03-22T00:40:34;1008.83;;;31.20;65.12
37170;BME280;23062;13.952;100.608;2023-03-22T00:44:59;1008.88;;;31.21;65.02
37170;BME280;23062;13.952;100.608;2023-03-22T00:49:25;1008.93;;;31.21;65.00
37170;BME280;23062;13.952;100.608;2023-03-22T00:53:50;1008.96;;;31.24;64.99
37170;BME280;23062;13.952;100.608;2023-03-22T00:58:19;1009.09;;;31.27;65.22
37170;BME280;23062;13.952;100.608;2023-03-22T01:02:44;1009.14;;;31.15;66.38
37170;BME280;23062;13.952;100.608;2023-03-22T01:07:09;1009.21;;;31.11;66.67
37170;BME280;23062;13.952;100.608;2023-03-22T01:11:35;1009.25;;;31.15;66.40
37170;BME280;23062;13.952;100.608;2023-03-22T01:16:00;1009.34;;;31.17;66.75
37170;BME280;23062;13.952;100.608;2023-03-22T01:20:26;1009.38;;;31.17;66.71
37170;BME280;23062;13.952;100.608;2023-03-22T01:24:51;1009.41;;;31.21;66.74
37170;BME280;23062;13.952;100.608;2023-03-22T01:29:18;1009.55;;;31.26;66.34
37170;BME280;23062;13.952;100.608;2023-03-22T01:33:45;1009.59;;;31.29;66.21
37170;BME280;23062;13.952;100.608;2023-03-22T01:38:14;1009.63;;;31.30;66.23
37170;BME280;23062;13.952;100.608;2023-03-22T01:42:39;1009.64;;;31.31;66.35
37170;BME280;23062;13.952;100.608;2023-03-22T01:47:08;1009.64;;;31.32;66.45
37170;BME280;23062;13.952;100.608;2023-03-22T01:51:33;1009.71;;;31.20;66.92
37170;BME280;23062;13.952;100.608;2023-03-22T01:55:59;1009.77;;;31.22;67.00
37170;BME280;23062;13.952;100.608;2023-03-22T02:00:28;1009.71;;;31.23;66.92
37170;BME280;23062;13.952;100.608;2023-03-22T02:04:53;1009.79;;;31.26;66.75
37170;BME280;23062;13.952;100.608;2023-03-22T02:09:20;1009.80;;;31.31;66.61
37170;BME280;23062;13.952;100.608;2023-03-22T02:14:00;1009.90;;;31.36;66.56
37170;BME280;23062;13.952;100.608;2023-03-22T02:37:15;1009.96;;;31.51;64.82
37170;BME280;23062;13.952;100.608;2023-03-22T02:46:18;1009.96;;;31.55;64.71
37170;BME280;23062;13.952;100.608;2023-03-22T02:50:54;1009.95;;;31.69;64.35
37170;BME280;23062;13.952;100.608;2023-03-22T03:00:15;1009.96;;;31.76;63.98
37170;BME280;23062;13.952;100.608;2023-03-22T03:04:43;1009.92;;;31.78;63.87
37170;BME280;23062;13.952;100.608;2023-03-22T03:09:09;1009.94;;;31.78;63.85
37170;BME280;23062;13.952;100.608;2023-03-22T03:13:36;1009.91;;;31.79;63.69
37170;BME280;23062;13.952;100.608;2023-03-22T03:18:18;1009.90;;;31.80;63.59
37170;BME280;23062;13.952;100.608;2023-03-22T03:27:36;1009.80;;;31.84;63.09
37170;BME280;23062;13.952;100.608;2023-03-22T03:32:33;1009.82;;;31.85;62.84
37170;BME280;23062;13.952;100.608;2023-03-22T03:37:15;1009.84;;;31.86;62.69
37170;BME280;23062;13.952;100.608;2023-03-22T03:41:36;1009.83;;;31.88;62.49
37170;BME280;23062;13.952;100.608;2023-03-22T03:46:07;1009.79;;;31.89;62.23
37170;BME280;23062;13.952;100.608;2023-03-22T03:50:35;1009.77;;;31.89;62.14
37170;BME280;23062;13.952;100.608;2023-03-22T03:55:00;1009.72;;;31.90;62.01
37170;BME280;23062;13.952;100.608;2023-03-22T03:59:28;1009.74;;;31.92;61.75
37170;BME280;23062;13.952;100.608;2023-03-22T04:03:54;1009.71;;;31.94;61.42
37170;BME280;23062;13.952;100.608;2023-03-22T04:08:19;1009.60;;;31.95;61.19
37170;BME280;23062;13.952;100.608;2023-03-22T04:12:44;1009.61;;;31.97;60.98
37170;BME280;23062;13.952;100.608;2023-03-22T04:17:09;1009.46;;;31.98;60.69
37170;BME280;23062;13.952;100.608;2023-03-22T04:21:38;1009.41;;;32.00;60.53
37170;BME280;23062;13.952;100.608;2023-03-22T04:26:05;1009.39;;;32.02;59.45
37170;BME280;23062;13.952;100.608;2023-03-22T04:30:30;1009.36;;;32.07;58.40
37170;BME280;23062;13.952;100.608;2023-03-22T04:34:57;1009.30;;;32.31;55.49
37170;BME280;23062;13.952;100.608;2023-03-22T04:39:24;1009.14;;;32.36;55.04
37170;BME280;23062;13.952;100.608;2023-03-22T04:43:50;1009.01;;;32.34;55.17
37170;BME280;23062;13.952;100.608;2023-03-22T04:48:15;1009.01;;;32.37;55.70
37170;BME280;23062;13.952;100.608;2023-03-22T04:52:41;1008.95;;;32.44;55.42
37170;BME280;23062;13.952;100.608;2023-03-22T04:57:07;1008.89;;;32.44;55.37
37170;BME280;23062;13.952;100.608;2023-03-22T05:01:33;1008.82;;;32.55;54.84
37170;BME280;23062;13.952;100.608;2023-03-22T05:06:00;1008.68;;;32.71;54.00
37170;BME280;23062;13.952;100.608;2023-03-22T05:10:29;1008.62;;;32.70;54.10
37170;BME280;23062;13.952;100.608;2023-03-22T05:14:55;1008.52;;;32.76;53.86
37170;BME280;23062;13.952;100.608;2023-03-22T05:19:19;1008.45;;;32.68;53.62
37170;BME280;23062;13.952;100.608;2023-03-22T05:23:47;1008.34;;;32.78;53.13
37170;BME280;23062;13.952;100.608;2023-03-22T05:28:13;1008.21;;;32.82;53.15
37170;BME280;23062;13.952;100.608;2023-03-22T05:32:45;1008.07;;;32.80;53.21
37170;BME280;23062;13.952;100.608;2023-03-22T05:37:12;1007.99;;;32.73;53.90
37170;BME280;23062;13.952;100.608;2023-03-22T05:41:36;1007.83;;;32.70;54.56
37170;BME280;23062;13.952;100.608;2023-03-22T05:46:06;1007.75;;;32.78;53.93
37170;BME280;23062;13.952;100.608;2023-03-22T05:50:32;1007.68;;;32.80;53.49
37170;BME280;23062;13.952;100.608;2023-03-22T05:54:57;1007.59;;;32.86;53.03
37170;BME280;23062;13.952;100.608;2023-03-22T05:59:22;1007.54;;;32.86;53.09
37170;BME280;23062;13.952;100.608;2023-03-22T06:03:47;1007.35;;;32.81;53.22
37170;BME280;23062;13.952;100.608;2023-03-22T06:08:13;1007.25;;;32.87;52.67
37170;BME280;23062;13.952;100.608;2023-03-22T06:12:38;1007.09;;;32.81;53.20
37170;BME280;23062;13.952;100.608;2023-03-22T06:17:05;1006.98;;;32.90;52.98
37170;BME280;23062;13.952;100.608;2023-03-22T06:21:30;1006.83;;;32.87;53.49
37170;BME280;23062;13.952;100.608;2023-03-22T06:25:55;1006.72;;;33.04;53.13
37170;BME280;23062;13.952;100.608;2023-03-22T06:30:20;1006.58;;;32.96;53.14
37170;BME280;23062;13.952;100.608;2023-03-22T06:34:50;1006.48;;;32.89;53.62
37170;BME280;23062;13.952;100.608;2023-03-22T06:39:14;1006.41;;;32.92;53.73
37170;BME280;23062;13.952;100.608;2023-03-22T06:43:43;1006.27;;;32.97;53.83
37170;BME280;23062;13.952;100.608;2023-03-22T06:48:11;1006.19;;;32.96;54.14
37170;BME280;23062;13.952;100.608;2023-03-22T06:52:35;1006.11;;;32.98;54.13
37170;BME280;23062;13.952;100.608;2023-03-22T06:57:00;1006.08;;;33.05;53.84
37170;BME280;23062;13.952;100.608;2023-03-22T07:01:25;1005.98;;;33.08;53.66
37170;BME280;23062;13.952;100.608;2023-03-22T07:06:01;1005.88;;;33.07;53.42
37170;BME280;23062;13.952;100.608;2023-03-22T07:10:26;1005.88;;;33.02;53.73
37170;BME280;23062;13.952;100.608;2023-03-22T07:14:53;1005.81;;;32.99;54.17
37170;BME280;23062;13.952;100.608;2023-03-22T07:19:18;1005.69;;;33.00;54.53
37170;BME280;23062;13.952;100.608;2023-03-22T07:23:43;1005.61;;;32.98;54.78
37170;BME280;23062;13.952;100.608;2023-03-22T07:28:07;1005.57;;;33.05;54.91
37170;BME280;23062;13.952;100.608;2023-03-22T07:32:33;1005.51;;;33.11;55.13
37170;BME280;23062;13.952;100.608;2023-03-22T07:36:59;1005.49;;;33.05;55.41
37170;BME280;23062;13.952;100.608;2023-03-22T07:41:31;1005.42;;;33.05;55.55
37170;BME280;23062;13.952;100.608;2023-03-22T07:45:56;1005.31;;;32.96;55.99
37170;BME280;23062;13.952;100.608;2023-03-22T07:50:21;1005.27;;;33.07;55.64
37170;BME280;23062;13.952;100.608;2023-03-22T07:54:46;1005.18;;;33.09;55.80
37170;BME280;23062;13.952;100.608;2023-03-22T07:59:11;1005.17;;;33.08;56.25
37170;BME280;23062;13.952;100.608;2023-03-22T08:03:39;1005.10;;;33.02;56.71
37170;BME280;23062;13.952;100.608;2023-03-22T08:08:04;1005.12;;;33.00;56.80
37170;BME280;23062;13.952;100.608;2023-03-22T08:12:30;1005.09;;;33.07;56.89
37170;BME280;23062;13.952;100.608;2023-03-22T08:16:55;1005.07;;;33.12;56.79
37170;BME280;23062;13.952;100.608;2023-03-22T08:21:21;1005.09;;;33.13;57.00
37170;BME280;23062;13.952;100.608;2023-03-22T08:25:49;1005.02;;;33.13;57.17
37170;BME280;23062;13.952;100.608;2023-03-22T08:30:14;1004.95;;;33.07;57.43
37170;BME280;23062;13.952;100.608;2023-03-22T08:34:40;1004.93;;;33.09;57.38
37170;BME280;23062;13.952;100.608;2023-03-22T08:39:06;1004.94;;;33.13;57.26
37170;BME280;23062;13.952;100.608;2023-03-22T08:43:32;1004.96;;;33.17;57.30
37170;BME280;23062;13.952;100.608;2023-03-22T08:47:57;1004.87;;;33.16;57.52
37170;BME280;23062;13.952;100.608;2023-03-22T08:52:26;1004.93;;;33.22;57.23
37170;BME280;23062;13.952;100.608;2023-03-22T08:56:54;1004.91;;;33.28;56.87
37170;BME280;23062;13.952;100.608;2023-03-22T09:01:21;1004.86;;;33.24;56.92
37170;BME280;23062;13.952;100.608;2023-03-22T09:05:48;1004.86;;;33.16;57.26
37170;BME280;23062;13.952;100.608;2023-03-22T09:10:12;1004.82;;;33.11;57.64
37170;BME280;23062;13.952;100.608;2023-03-22T09:14:42;1004.84;;;33.13;57.24
37170;BME280;23062;13.952;100.608;2023-03-22T09:19:08;1004.81;;;33.16;57.03
37170;BME280;23062;13.952;100.608;2023-03-22T09:23:33;1004.78;;;33.14;57.06
37170;BME280;23062;13.952;100.608;2023-03-22T09:27:59;1004.69;;;33.12;57.19
37170;BME280;23062;13.952;100.608;2023-03-22T09:32:24;1004.70;;;33.12;57.49
37170;BME280;23062;13.952;100.608;2023-03-22T09:36:49;1004.60;;;33.09;57.80
37170;BME280;23062;13.952;100.608;2023-03-22T09:41:20;1004.59;;;33.12;57.12
37170;BME280;23062;13.952;100.608;2023-03-22T09:45:48;1004.55;;;33.07;57.43
37170;BME280;23062;13.952;100.608;2023-03-22T09:50:18;1004.46;;;33.08;56.89
37170;BME280;23062;13.952;100.608;2023-03-22T09:54:45;1004.45;;;33.06;56.92
37170;BME280;23062;13.952;100.608;2023-03-22T09:59:16;1004.53;;;33.05;56.52
37170;BME280;23062;13.952;100.608;2023-03-22T10:13:40;1004.81;;;33.00;56.21
37170;BME280;23062;13.952;100.608;2023-03-22T10:18:18;1004.84;;;33.01;55.66
37170;BME280;23062;13.952;100.608;2023-03-22T10:22:41;1004.83;;;32.99;56.00
37170;BME280;23062;13.952;100.608;2023-03-22T10:27:14;1004.92;;;32.97;56.31
37170;BME280;23062;13.952;100.608;2023-03-22T10:31:42;1004.92;;;32.98;56.11
37170;BME280;23062;13.952;100.608;2023-03-22T10:36:11;1004.97;;;32.97;55.72
37170;BME280;23062;13.952;100.608;2023-03-22T10:40:37;1004.97;;;32.95;55.79
37170;BME280;23062;13.952;100.608;2023-03-22T10:45:11;1005.04;;;32.93;55.98
37170;BME280;23062;13.952;100.608;2023-03-22T10:49:38;1005.04;;;32.92;55.78
37170;BME280;23062;13.952;100.608;2023-03-22T10:54:14;1005.08;;;32.88;55.87
37170;BME280;23062;13.952;100.608;2023-03-22T10:58:39;1005.13;;;32.84;56.21
37170;BME280;23062;13.952;100.608;2023-03-22T11:03:05;1005.22;;;32.85;56.10
37170;BME280;23062;13.952;100.608;2023-03-22T11:07:38;1005.21;;;32.82;56.23
37170;BME280;23062;13.952;100.608;2023-03-22T11:12:04;1005.29;;;32.80;56.40
37170;BME280;23062;13.952;100.608;2023-03-22T11:21:40;1005.40;;;32.76;56.53
37170;BME280;23062;13.952;100.608;2023-03-22T11:26:08;1005.51;;;32.76;56.41
37170;BME280;23062;13.952;100.608;2023-03-22T11:30:34;1005.57;;;32.73;56.11
37170;BME280;23062;13.952;100.608;2023-03-22T11:35:09;1005.66;;;32.71;55.89
37170;BME280;23062;13.952;100.608;2023-03-22T11:39:30;1005.74;;;32.71;56.28
37170;BME280;23062;13.952;100.608;2023-03-22T11:43:57;1005.77;;;32.70;56.88
37170;BME280;23062;13.952;100.608;2023-03-22T11:48:24;1005.81;;;32.66;56.98
37170;BME280;23062;13.952;100.608;2023-03-22T11:52:52;1005.80;;;32.63;57.14
37170;BME280;23062;13.952;100.608;2023-03-22T11:57:19;1005.91;;;32.64;57.27
37170;BME280;23062;13.952;100.608;2023-03-22T12:01:49;1005.87;;;32.64;57.35
37170;BME280;23062;13.952;100.608;2023-03-22T12:06:20;1005.91;;;32.58;56.88
37170;BME280;23062;13.952;100.608;2023-03-22T12:10:49;1005.90;;;32.52;55.90
37170;BME280;23062;13.952;100.608;2023-03-22T12:15:28;1005.80;;;32.50;55.79
37170;BME280;23062;13.952;100.608;2023-03-22T12:20:16;1005.88;;;32.47;55.82
37170;BME280;23062;13.952;100.608;2023-03-22T12:24:45;1005.74;;;32.45;55.96
37170;BME280;23062;13.952;100.608;2023-03-22T12:29:17;1005.77;;;32.45;56.45
37170;BME280;23062;13.952;100.608;2023-03-22T12:33:47;1005.78;;;32.42;56.94
37170;BME280;23062;13.952;100.608;2023-03-22T12:47:48;1006.02;;;32.40;58.18
37170;BME280;23062;13.952;100.608;2023-03-22T12:52:14;1006.05;;;32.35;58.48
37170;BME280;23062;13.952;100.608;2023-03-22T12:56:41;1006.18;;;32.33;58.53
37170;BME280;23062;13.952;100.608;2023-03-22T13:06:05;1006.34;;;32.34;58.70
37170;BME280;23062;13.952;100.608;2023-03-22T13:24:56;1006.41;;;32.69;57.77
37170;BME280;23062;13.952;100.608;2023-03-22T13:29:17;1006.55;;;32.71;57.76
37170;BME280;23062;13.952;100.608;2023-03-22T13:33:43;1006.61;;;32.72;57.72
37170;BME280;23062;13.952;100.608;2023-03-22T13:38:24;1006.72;;;32.73;57.74
37170;BME280;23062;13.952;100.608;2023-03-22T13:42:50;1006.74;;;32.69;57.90
37170;BME280;23062;13.952;100.608;2023-03-22T13:47:36;1006.90;;;32.69;57.91
37170;BME280;23062;13.952;100.608;2023-03-22T13:52:06;1006.90;;;32.71;57.86
37170;BME280;23062;13.952;100.608;2023-03-22T13:56:46;1006.93;;;32.71;58.10
37170;BME280;23062;13.952;100.608;2023-03-22T14:01:00;1007.07;;;32.72;58.17
37170;BME280;23062;13.952;100.608;2023-03-22T14:05:29;1007.14;;;32.70;57.99
37170;BME280;23062;13.952;100.608;2023-03-22T14:10:02;1007.18;;;32.70;58.31
37170;BME280;23062;13.952;100.608;2023-03-22T14:20:43;1007.30;;;32.76;58.04
37170;BME280;23062;13.952;100.608;2023-03-22T14:25:10;1007.36;;;32.71;58.36
37170;BME280;23062;13.952;100.608;2023-03-22T14:29:47;1007.40;;;32.69;58.26
37170;BME280;23062;13.952;100.608;2023-03-22T14:34:14;1007.45;;;32.68;58.08
37170;BME280;23062;13.952;100.608;2023-03-22T14:38:41;1007.50;;;32.67;58.34
37170;BME280;23062;13.952;100.608;2023-03-22T14:43:15;1007.46;;;32.66;58.43
37170;BME280;23062;13.952;100.608;2023-03-22T14:47:48;1007.51;;;32.66;58.53
37170;BME280;23062;13.952;100.608;2023-03-22T14:52:19;1007.54;;;32.64;58.25
37170;BME280;23062;13.952;100.608;2023-03-22T14:56:49;1007.56;;;32.65;58.37
37170;BME280;23062;13.952;100.608;2023-03-22T15:01:19;1007.63;;;32.64;58.35
37170;BME280;23062;13.952;100.608;2023-03-22T15:05:50;1007.69;;;32.64;58.40
37170;BME280;23062;13.952;100.608;2023-03-22T15:10:19;1007.69;;;32.63;58.44
37170;BME280;23062;13.952;100.608;2023-03-22T15:14:48;1007.68;;;32.63;58.38
37170;BME280;23062;13.952;100.608;2023-03-22T15:19:15;1007.60;;;32.62;58.24
37170;BME280;23062;13.952;100.608;2023-03-22T15:23:49;1007.55;;;32.62;58.53
37170;BME280;23062;13.952;100.608;2023-03-22T15:28:17;1007.60;;;32.60;58.42
37170;BME280;23062;13.952;100.608;2023-03-22T15:32:44;1007.62;;;32.59;58.57
37170;BME280;23062;13.952;100.608;2023-03-22T15:37:14;1007.67;;;32.59;58.16
37170;BME280;23062;13.952;100.608;2023-03-22T15:41:41;1007.64;;;32.58;58.43
37170;BME280;23062;13.952;100.608;2023-03-22T15:46:16;1007.58;;;32.57;58.59
37170;BME280;23062;13.952;100.608;2023-03-22T15:50:46;1007.61;;;32.57;58.32
37170;BME280;23062;13.952;100.608;2023-03-22T15:55:16;1007.65;;;32.56;58.41
37170;BME280;23062;13.952;100.608;2023-03-22T16:00:05;1007.69;;;32.56;58.39
37170;BME280;23062;13.952;100.608;2023-03-22T16:04:33;1007.73;;;32.56;58.36
37170;BME280;23062;13.952;100.608;2023-03-22T16:08:58;1007.68;;;32.54;58.52
37170;BME280;23062;13.952;100.608;2023-03-22T16:13:26;1007.68;;;32.54;58.50
37170;BME280;23062;13.952;100.608;2023-03-22T16:17:51;1007.67;;;32.53;58.48
37170;BME280;23062;13.952;100.608;2023-03-22T16:22:18;1007.62;;;32.53;58.48
37170;BME280;23062;13.952;100.608;2023-03-22T16:26:46;1007.62;;;32.52;58.56
37170;BME280;23062;13.952;100.608;2023-03-22T16:31:19;1007.66;;;32.51;58.64
37170;BME280;23062;13.952;100.608;2023-03-22T16:35:45;1007.66;;;32.49;58.69
37170;BME280;23062;13.952;100.608;2023-03-22T16:40:15;1007.71;;;32.48;58.60
37170;BME280;23062;13.952;100.608;2023-03-22T16:44:40;1007.66;;;32.46;58.77
37170;BME280;23062;13.952;100.608;2023-03-22T16:49:08;1007.56;;;32.46;58.77
37170;BME280;23062;13.952;100.608;2023-03-22T16:53:33;1007.50;;;32.46;58.78
37170;BME280;23062;13.952;100.608;2023-03-22T16:57:59;1007.57;;;32.46;58.89
37170;BME280;23062;13.952;100.608;2023-03-22T17:02:35;1007.60;;;32.45;58.97
37170;BME280;23062;13.952;100.608;2023-03-22T17:07:00;1007.57;;;32.45;59.03
37170;BME280;23062;13.952;100.608;2023-03-22T17:11:26;1007.54;;;32.43;59.17
37170;BME280;23062;13.952;100.608;2023-03-22T17:15:52;1007.54;;;32.42;59.17
37170;BME280;23062;13.952;100.608;2023-03-22T17:20:18;1007.57;;;32.41;59.20
37170;BME280;23062;13.952;100.608;2023-03-22T17:24:45;1007.56;;;32.41;59.22
37170;BME280;23062;13.952;100.608;2023-03-22T17:29:11;1007.54;;;32.41;59.17
37170;BME280;23062;13.952;100.608;2023-03-22T17:33:37;1007.49;;;32.39;59.24
37170;BME280;23062;13.952;100.608;2023-03-22T17:38:02;1007.48;;;32.39;59.21
37170;BME280;23062;13.952;100.608;2023-03-22T17:42:30;1007.45;;;32.37;59.24
37170;BME280;23062;13.952;100.608;2023-03-22T17:46:55;1007.47;;;32.38;59.25
37170;BME280;23062;13.952;100.608;2023-03-22T17:51:21;1007.43;;;32.37;59.17
37170;BME280;23062;13.952;100.608;2023-03-22T17:55:46;1007.44;;;32.36;59.25
37170;BME280;23062;13.952;100.608;2023-03-22T18:00:12;1007.42;;;32.36;59.31
37170;BME280;23062;13.952;100.608;2023-03-22T18:04:37;1007.34;;;32.34;59.50
37170;BME280;23062;13.952;100.608;2023-03-22T18:09:03;1007.34;;;32.33;59.68
37170;BME280;23062;13.952;100.608;2023-03-22T18:13:28;1007.24;;;32.30;59.69
37170;BME280;23062;13.952;100.608;2023-03-22T18:17:53;1007.17;;;32.31;59.66
37170;BME280;23062;13.952;100.608;2023-03-22T18:22:19;1007.10;;;32.30;59.81
37170;BME280;23062;13.952;100.608;2023-03-22T18:26:44;1007.05;;;32.29;59.91
37170;BME280;23062;13.952;100.608;2023-03-22T18:31:10;1007.05;;;32.29;60.17
37170;BME280;23062;13.952;100.608;2023-03-22T18:35:36;1007.02;;;32.28;60.14
37170;BME280;23062;13.952;100.608;2023-03-22T18:40:03;1006.99;;;32.28;60.45
37170;BME280;23062;13.952;100.608;2023-03-22T18:44:30;1006.97;;;32.25;60.39
37170;BME280;23062;13.952;100.608;2023-03-22T18:48:56;1006.91;;;32.25;60.60
37170;BME280;23062;13.952;100.608;2023-03-22T18:53:21;1006.86;;;32.24;60.72
37170;BME280;23062;13.952;100.608;2023-03-22T18:57:46;1006.86;;;32.22;60.56
37170;BME280;23062;13.952;100.608;2023-03-22T19:02:11;1006.86;;;32.22;60.71
37170;BME280;23062;13.952;100.608;2023-03-22T19:06:36;1006.84;;;32.22;60.67
37170;BME280;23062;13.952;100.608;2023-03-22T19:11:06;1006.86;;;32.21;60.91
37170;BME280;23062;13.952;100.608;2023-03-22T19:15:32;1006.90;;;32.19;60.92
37170;BME280;23062;13.952;100.608;2023-03-22T19:19:59;1006.91;;;32.18;60.75
37170;BME280;23062;13.952;100.608;2023-03-22T19:24:24;1006.87;;;32.18;60.94
37170;BME280;23062;13.952;100.608;2023-03-22T19:28:50;1006.86;;;32.18;60.99
37170;BME280;23062;13.952;100.608;2023-03-22T19:33:17;1006.78;;;32.16;60.93
37170;BME280;23062;13.952;100.608;2023-03-22T19:37:42;1006.73;;;32.15;60.92
37170;BME280;23062;13.952;100.608;2023-03-22T19:42:07;1006.71;;;32.14;60.86
37170;BME280;23062;13.952;100.608;2023-03-22T19:46:33;1006.63;;;32.15;60.84
37170;BME280;23062;13.952;100.608;2023-03-22T19:51:00;1006.69;;;32.15;60.93
37170;BME280;23062;13.952;100.608;2023-03-22T19:55:27;1006.69;;;32.16;60.89
37170;BME280;23062;13.952;100.608;2023-03-22T19:59:52;1006.64;;;32.15;60.93
37170;BME280;23062;13.952;100.608;2023-03-22T20:04:23;1006.63;;;32.14;60.94
37170;BME280;23062;13.952;100.608;2023-03-22T20:08:49;1006.62;;;32.14;61.00
37170;BME280;23062;13.952;100.608;2023-03-22T20:13:14;1006.60;;;32.12;61.05
37170;BME280;23062;13.952;100.608;2023-03-22T20:17:40;1006.62;;;32.12;61.06
37170;BME280;23062;13.952;100.608;2023-03-22T20:22:11;1006.68;;;32.10;61.09
37170;BME280;23062;13.952;100.608;2023-03-22T20:26:37;1006.64;;;31.87;61.42
37170;BME280;23062;13.952;100.608;2023-03-22T20:31:09;1006.67;;;31.65;62.20
37170;BME280;23062;13.952;100.608;2023-03-22T20:35:35;1006.61;;;31.68;62.18
37170;BME280;23062;13.952;100.608;2023-03-22T20:40:04;1006.64;;;31.77;61.89
37170;BME280;23062;13.952;100.608;2023-03-22T20:44:33;1006.64;;;31.76;61.90
37170;BME280;23062;13.952;100.608;2023-03-22T20:48:58;1006.63;;;31.76;61.86
37170;BME280;23062;13.952;100.608;2023-03-22T20:53:23;1006.61;;;31.75;61.86
37170;BME280;23062;13.952;100.608;2023-03-22T20:57:48;1006.64;;;31.75;61.87
37170;BME280;23062;13.952;100.608;2023-03-22T21:02:14;1006.61;;;31.72;61.97
37170;BME280;23062;13.952;100.608;2023-03-22T21:06:40;1006.66;;;31.73;62.07
37170;BME280;23062;13.952;100.608;2023-03-22T21:11:11;1006.65;;;31.72;62.02
37170;BME280;23062;13.952;100.608;2023-03-22T21:15:42;1006.64;;;31.43;63.04
37170;BME280;23062;13.952;100.608;2023-03-22T21:20:08;1006.64;;;31.39;63.30
37170;BME280;23062;13.952;100.608;2023-03-22T21:24:34;1006.67;;;31.35;63.51
37170;BME280;23062;13.952;100.608;2023-03-22T21:28:59;1006.70;;;31.31;63.70
37170;BME280;23062;13.952;100.608;2023-03-22T21:33:24;1006.72;;;31.32;63.68
37170;BME280;23062;13.952;100.608;2023-03-22T21:37:49;1006.72;;;31.32;63.80
37170;BME280;23062;13.952;100.608;2023-03-22T21:42:14;1006.74;;;31.30;63.89
37170;BME280;23062;13.952;100.608;2023-03-22T21:46:39;1006.72;;;31.30;63.93
37170;BME280;23062;13.952;100.608;2023-03-22T21:51:06;1006.74;;;31.17;64.64
37170;BME280;23062;13.952;100.608;2023-03-22T21:55:31;1006.68;;;31.06;64.89
37170;BME280;23062;13.952;100.608;2023-03-22T21:59:56;1006.73;;;31.02;65.28
37170;BME280;23062;13.952;100.608;2023-03-22T22:04:23;1006.79;;;31.00;65.54
37170;BME280;23062;13.952;100.608;2023-03-22T22:08:52;1006.85;;;31.00;65.47
37170;BME280;23062;13.952;100.608;2023-03-22T22:13:21;1006.88;;;30.98;65.62
37170;BME280;23062;13.952;100.608;2023-03-22T22:17:47;1006.86;;;30.99;65.69
37170;BME280;23062;13.952;100.608;2023-03-22T22:22:12;1006.97;;;30.93;65.84
37170;BME280;23062;13.952;100.608;2023-03-22T22:26:37;1007.02;;;30.93;65.98
37170;BME280;23062;13.952;100.608;2023-03-22T22:31:09;1007.06;;;30.90;66.21
37170;BME280;23062;13.952;100.608;2023-03-22T22:35:40;1007.15;;;30.93;66.20
37170;BME280;23062;13.952;100.608;2023-03-22T22:40:09;1007.25;;;30.93;66.13
37170;BME280;23062;13.952;100.608;2023-03-22T22:44:36;1007.25;;;30.96;66.08
37170;BME280;23062;13.952;100.608;2023-03-22T22:49:02;1007.23;;;31.01;66.01
37170;BME280;23062;13.952;100.608;2023-03-22T22:53:30;1007.30;;;31.18;65.33
37170;BME280;23062;13.952;100.608;2023-03-22T22:57:57;1007.30;;;31.29;64.74
37170;BME280;23062;13.952;100.608;2023-03-22T23:02:23;1007.33;;;31.33;64.55
37170;BME280;23062;13.952;100.608;2023-03-22T23:06:55;1007.39;;;31.34;64.49
37170;BME280;23062;13.952;100.608;2023-03-22T23:11:22;1007.49;;;31.34;64.38
37170;BME280;23062;13.952;100.608;2023-03-22T23:15:48;1007.57;;;31.35;64.42
37170;BME280;23062;13.952;100.608;2023-03-22T23:20:15;1007.62;;;31.35;64.39
37170;BME280;23062;13.952;100.608;2023-03-22T23:24:40;1007.68;;;31.35;64.31
37170;BME280;23062;13.952;100.608;2023-03-22T23:29:06;1007.77;;;31.35;64.38
37170;BME280;23062;13.952;100.608;2023-03-22T23:33:33;1007.82;;;31.36;64.36
37170;BME280;23062;13.952;100.608;2023-03-22T23:38:00;1007.90;;;31.34;64.38
37170;BME280;23062;13.952;100.608;2023-03-22T23:42:27;1007.97;;;31.35;64.42
37170;BME280;23062;13.952;100.608;2023-03-22T23:46:52;1008.15;;;31.35;64.43
37170;BME280;23062;13.952;100.608;2023-03-22T23:51:18;1008.18;;;31.33;64.51
37170;BME280;23062;13.952;100.608;2023-03-22T23:55:44;1008.23;;;31.33;64.54
